Time;durP1;ratioP1;P1;durP2;ratioP2;P2;SDS_P1;SDS_P2;PMS_P1;PMS_P2;Temp;Humidity;BMP_temperature;BMP_pressure;BME280_temperature;BME280_humidity;BME280_pressure;Samples;Min_cycle;Max_cycle;Signal;HPM_P1;HPM_P2
2021/08/28 07:02:30;;;;;;;7.47;5.35;;;;;;;16.52;76.01;98813.41;4993407;23;20047;-69
2021/08/28 07:04:55;;;;;;;8.60;4.78;;;;;;;15.99;79.92;98816.44;4942998;29;20032;-69
2021/08/28 07:07:21;;;;;;;5.93;5.28;;;;;;;16.26;80.30;98813.66;4935253;29;20032;-69
2021/08/28 07:09:46;;;;;;;6.28;4.43;;;;;;;16.55;78.45;98810.69;4933972;29;20102;-70
2021/08/28 07:12:11;;;;;;;4.82;4.18;;;;;;;16.52;76.11;98810.81;4918584;29;20024;-69
2021/08/28 07:14:39;;;;;;;5.88;4.30;;;;;;;16.51;76.48;98813.50;4963243;23;20530;-71
2021/08/28 07:17:05;;;;;;;4.97;3.53;;;;;;;17.88;70.80;98798.72;4954116;28;20059;-71
2021/08/28 07:19:30;;;;;;;3.45;3.13;;;;;;;19.24;66.50;98795.41;4954329;28;20467;-71
2021/08/28 07:21:55;;;;;;;6.82;3.40;;;;;;;20.52;60.86;98790.06;4954011;28;20391;-69
2021/08/28 07:24:21;;;;;;;3.30;3.00;;;;;;;18.29;64.39;98796.72;4954186;28;20483;-69
2021/08/28 07:26:46;;;;;;;5.40;3.40;;;;;;;17.92;68.83;98802.91;4954179;28;20031;-69
2021/08/28 07:29:11;;;;;;;3.53;3.22;;;;;;;16.99;72.49;98815.81;4954152;28;20051;-69
2021/08/28 07:31:37;;;;;;;5.38;3.40;;;;;;;16.55;73.71;98810.69;4952685;28;20038;-69
2021/08/28 07:34:02;;;;;;;6.47;3.10;;;;;;;15.74;76.78;98810.47;4964490;28;20022;-69
2021/08/28 07:36:28;;;;;;;4.25;3.42;;;;;;;15.18;77.20;98811.63;4973450;28;20038;-69
2021/08/28 07:38:53;;;;;;;5.18;2.90;;;;;;;15.02;79.88;98813.94;4973206;28;20022;-69
2021/08/28 07:41:18;;;;;;;3.00;2.60;;;;;;;15.93;77.89;98811.47;4973106;28;20368;-69
2021/08/28 07:43:44;;;;;;;5.72;3.35;;;;;;;16.45;76.80;98809.38;4973205;28;20120;-69
2021/08/28 07:46:09;;;;;;;6.13;3.50;;;;;;;16.92;73.59;98803.91;4973173;28;20027;-69
2021/08/28 07:48:35;;;;;;;3.38;2.83;;;;;;;16.92;74.87;98806.50;4973212;28;20153;-69
2021/08/28 07:51:00;;;;;;;5.00;3.00;;;;;;;17.09;74.33;98811.88;4961205;28;20388;-69
2021/08/28 07:53:25;;;;;;;3.45;2.65;;;;;;;17.55;71.18;98815.06;4953614;28;20039;-69
2021/08/28 07:55:51;;;;;;;2.70;2.50;;;;;;;18.10;68.36;98812.50;4953936;28;20019;-69
2021/08/28 07:58:16;;;;;;;3.90;2.53;;;;;;;18.43;66.55;98814.41;4953751;28;20023;-70
2021/08/28 08:00:41;;;;;;;3.70;2.35;;;;;;;18.42;66.06;98813.56;4953818;28;20050;-71
2021/08/28 08:03:07;;;;;;;2.58;2.38;;;;;;;18.33;66.63;98814.03;4959602;28;20023;-69
2021/08/28 08:05:32;;;;;;;3.67;2.72;;;;;;;17.97;68.95;98822.72;4968479;28;20026;-69
2021/08/28 08:07:57;;;;;;;2.65;2.45;;;;;;;18.18;68.55;98822.59;4971701;28;20035;-69
2021/08/28 08:10:23;;;;;;;3.63;2.90;;;;;;;17.35;70.56;98833.44;4973074;28;20030;-69
2021/08/28 08:12:48;;;;;;;3.00;2.80;;;;;;;17.07;71.08;98824.19;4972780;28;20045;-71
2021/08/28 08:15:13;;;;;;;6.28;3.35;;;;;;;16.97;70.12;98830.75;4972765;28;20026;-71
2021/08/28 08:17:39;;;;;;;2.70;2.47;;;;;;;16.75;73.26;98837.81;4972802;28;20085;-71
2021/08/28 08:20:05;;;;;;;3.67;3.38;;;;;;;18.33;68.18;98824.53;4966931;28;20039;-71
2021/08/28 08:22:30;;;;;;;4.10;3.70;;;;;;;19.71;61.97;98820.06;4953284;28;20039;-69
2021/08/28 08:24:55;;;;;;;2.78;2.50;;;;;;;20.38;60.97;98820.72;4953502;28;20067;-74
2021/08/28 08:27:21;;;;;;;3.25;2.00;;;;;;;21.63;55.08;98826.44;4953481;28;20026;-74
2021/08/28 08:29:46;;;;;;;5.18;2.17;;;;;;;21.78;54.22;98820.19;4953409;28;20039;-74
2021/08/28 08:32:11;;;;;;;5.50;2.22;;;;;;;21.33;57.22;98818.63;4955541;28;20019;-74
2021/08/28 08:34:37;;;;;;;1.90;1.80;;;;;;;21.76;55.11;98811.53;4964610;28;20031;-74
2021/08/28 08:37:02;;;;;;;1.80;1.63;;;;;;;20.94;57.08;98816.59;4972796;28;20026;-74
2021/08/28 08:39:28;;;;;;;1.58;1.48;;;;;;;19.76;62.03;98815.41;4972629;28;20085;-73
2021/08/28 08:41:54;;;;;;;1.75;1.58;;;;;;;20.20;60.64;98820.81;4972663;28;20022;-74
2021/08/28 08:44:21;;;;;;;2.58;1.98;;;;;;;19.51;60.74;98818.50;4972543;28;20035;-73
2021/08/28 08:46:48;;;;;;;2.92;1.58;;;;;;;18.72;62.79;98820.88;4972689;28;20027;-73
2021/08/28 08:49:13;;;;;;;3.60;1.70;;;;;;;17.61;67.23;98825.28;4972614;28;20531;-74
2021/08/28 08:51:39;;;;;;;3.13;1.58;;;;;;;17.79;66.20;98817.50;4957988;28;20162;-74
2021/08/28 08:54:05;;;;;;;3.08;1.50;;;;;;;17.22;69.21;98822.69;4956559;28;20155;-74
2021/08/28 08:56:32;;;;;;;3.85;1.50;;;;;;;17.55;68.08;98829.91;4956881;28;20393;-74
2021/08/28 08:58:59;;;;;;;1.77;1.30;;;;;;;17.67;66.89;98830.22;4956686;28;20101;-73
2021/08/28 09:01:24;;;;;;;1.77;1.67;;;;;;;17.51;68.77;98834.47;4956560;28;20035;-73
2021/08/28 09:03:50;;;;;;;3.72;1.73;;;;;;;17.58;69.49;98829.78;4963845;28;20374;-73
2021/08/28 09:06:16;;;;;;;1.67;1.50;;;;;;;17.71;65.89;98821.31;4975963;28;20031;-73
2021/08/28 09:08:41;;;;;;;3.20;1.67;;;;;;;17.56;66.81;98836.88;4975898;28;20030;-73
2021/08/28 09:11:19;;;;;;;1.90;1.70;;;;;;;17.64;67.33;98840.81;4975607;28;20054;-73
2021/08/28 09:13:45;;;;;;;3.42;1.52;;;;;;;17.54;68.96;98834.31;4975328;28;20031;-73
2021/08/28 09:16:10;;;;;;;3.50;1.38;;;;;;;16.98;69.44;98840.31;4975701;28;20035;-73
2021/08/28 09:18:52;;;;;;;3.42;1.50;;;;;;;17.42;66.82;98840.13;4975730;28;20026;-73
2021/08/28 09:21:21;;;;;;;2.15;1.10;;;;;;;17.61;69.04;98846.22;4961104;28;20027;-73
2021/08/28 09:23:47;;;;;;;1.65;1.50;;;;;;;18.07;64.79;98844.13;4956389;28;20035;-74
2021/08/28 09:26:33;;;;;;;1.40;1.30;;;;;;;18.02;64.98;98842.63;4956024;28;20023;-79
2021/08/28 09:28:59;;;;;;;1.92;1.20;;;;;;;18.12;64.47;98842.13;4956635;28;20102;-79
2021/08/28 09:31:45;;;;;;;1.05;1.02;;;;;;;17.78;65.60;98847.25;4956020;28;20560;-75
2021/08/28 09:34:22;;;;;;;2.33;1.10;;;;;;;17.80;65.53;98851.50;4964197;28;20027;-75
2021/08/28 09:36:53;;;;;;;1.85;1.23;;;;;;;17.47;66.66;98857.31;4956585;28;20396;-77
2021/08/28 09:39:18;;;;;;;1.20;1.15;;;;;;;17.13;67.00;98850.09;4956425;28;20026;-71
2021/08/28 09:41:44;;;;;;;3.45;1.30;;;;;;;15.83;69.32;98862.38;4955713;28;20424;-71
2021/08/28 09:44:10;;;;;;;3.47;1.10;;;;;;;16.02;69.71;98858.16;4955649;28;20059;-70
2021/08/28 09:46:38;;;;;;;1.27;1.17;;;;;;;16.23;69.81;98860.81;4954418;28;20058;-70
2021/08/28 09:49:05;;;;;;;5.53;1.00;;;;;;;15.63;71.91;98860.47;4954010;28;20051;-70
2021/08/28 09:51:40;;;;;;;1.65;1.13;;;;;;;16.05;72.83;98860.66;4937766;28;20028;-70
2021/08/28 09:54:10;;;;;;;1.30;1.20;;;;;;;16.21;73.83;98857.44;4934665;29;20059;-70
2021/08/28 09:56:41;;;;;;;3.95;1.20;;;;;;;15.91;75.38;98855.09;4934865;29;20433;-70
2021/08/28 09:59:22;;;;;;;2.30;1.30;;;;;;;16.25;74.86;98859.00;4934823;29;20041;-70
2021/08/28 10:01:48;;;;;;;18.40;13.75;;;;;;;16.03;75.70;98865.06;4936349;28;20030;-70
2021/08/28 10:04:13;;;;;;;1.80;1.70;;;;;;;15.90;77.67;98858.59;4966877;28;20149;-70
2021/08/28 10:06:46;;;;;;;3.25;2.78;;;;;;;15.79;79.60;98855.56;4974910;28;20444;-70
2021/08/28 10:09:14;;;;;;;5.00;2.67;;;;;;;15.78;80.20;98859.94;4974742;28;20098;-70
2021/08/28 10:11:45;;;;;;;1.75;1.63;;;;;;;16.03;79.66;98854.63;4974474;28;20062;-70
2021/08/28 10:14:15;;;;;;;8.23;5.35;;;;;;;15.74;79.63;98857.50;4974385;28;20053;-70
2021/08/28 10:16:43;;;;;;;1.40;1.30;;;;;;;15.82;81.16;98863.28;4974848;28;20031;-70
2021/08/28 10:19:13;;;;;;;0.90;0.90;;;;;;;15.75;80.44;98867.03;4974546;28;20561;-70
2021/08/28 10:21:38;;;;;;;2.35;2.15;;;;;;;15.38;78.79;98860.53;4957300;28;20023;-70
2021/08/28 10:24:04;;;;;;;2.20;1.00;;;;;;;15.29;81.30;98863.47;4955069;29;20565;-70
2021/08/28 10:26:29;;;;;;;2.00;1.30;;;;;;;15.17;82.31;98862.97;4955095;28;20035;-70
2021/08/28 10:29:02;;;;;;;1.92;1.23;;;;;;;15.23;82.54;98861.06;4954931;28;20034;-70
2021/08/28 10:31:28;;;;;;;1.70;1.40;;;;;;;15.42;82.87;98862.97;4954859;28;20023;-70
2021/08/28 10:33:54;;;;;;;3.53;1.25;;;;;;;15.12;80.85;98859.69;4962806;28;20066;-70
2021/08/28 10:36:20;;;;;;;62.88;36.13;;;;;;;15.35;82.75;98865.84;4974266;28;20058;-70
2021/08/28 10:38:48;;;;;;;2.55;2.00;;;;;;;15.56;81.31;98859.84;4974151;28;20085;-70
2021/08/28 10:41:14;;;;;;;1.25;1.17;;;;;;;15.59;81.11;98854.50;4973930;28;20073;-70
2021/08/28 10:43:41;;;;;;;2.47;1.42;;;;;;;15.63;80.99;98856.13;4974253;28;20411;-70
2021/08/28 10:46:27;;;;;;;1.65;1.52;;;;;;;15.63;81.17;98866.59;4974138;28;20049;-70
2021/08/28 10:48:58;;;;;;;3.55;1.15;;;;;;;15.43;80.52;98869.03;4974038;28;20034;-70
2021/08/28 10:51:31;;;;;;;1.33;1.20;;;;;;;15.46;81.02;98868.91;4958714;28;20039;-70
2021/08/28 10:54:02;;;;;;;1.40;1.20;;;;;;;15.22;81.26;98867.19;4954595;28;20710;-70
2021/08/28 10:56:55;;;;;;;3.40;1.88;;;;;;;15.43;82.38;98858.59;4953417;28;20033;-70
2021/08/28 10:59:29;;;;;;;2.67;1.60;;;;;;;15.84;82.58;98859.69;4953702;28;20090;-70
2021/08/28 11:01:58;;;;;;;3.40;2.47;;;;;;;16.27;79.76;98862.41;4954443;28;20038;-70
2021/08/28 11:04:30;;;;;;;1.30;1.20;;;;;;;16.66;77.45;98863.41;4965499;28;20080;-70
2021/08/28 11:07:28;;;;;;;1.80;1.70;;;;;;;17.28;75.07;98863.44;4973924;28;20030;-70
2021/08/28 11:10:18;;;;;;;1.90;1.40;;;;;;;17.56;73.78;98863.94;4973694;28;20029;-70
2021/08/28 11:13:03;;;;;;;3.28;1.60;;;;;;;17.64;69.77;98872.28;4973225;28;20127;-70
2021/08/28 11:15:28;;;;;;;4.10;2.60;;;;;;;17.72;69.83;98864.09;4973414;28;20080;-70
2021/08/28 11:18:19;;;;;;;1.87;1.00;;;;;;;17.79;69.70;98862.03;4973607;28;20031;-70
2021/08/28 11:20:48;;;;;;;1.27;1.10;;;;;;;17.81;68.54;98862.84;4963027;28;20317;-70
2021/08/28 11:23:18;;;;;;;1.25;1.15;;;;;;;18.18;69.33;98857.59;4954086;28;20465;-70
2021/08/28 11:25:49;;;;;;;2.22;0.90;;;;;;;18.94;64.24;98846.88;4954144;28;20106;-72
2021/08/28 11:28:18;;;;;;;2.60;0.80;;;;;;;18.90;66.06;98850.56;4954248;28;20030;-72
2021/08/28 11:30:47;;;;;;;1.42;0.95;;;;;;;19.05;65.75;98849.81;4952833;28;20023;-72
2021/08/28 11:33:27;;;;;;;0.98;0.95;;;;;;;18.84;67.39;98861.41;4960046;28;20031;-73
2021/08/28 11:35:59;;;;;;;1.08;0.90;;;;;;;19.25;64.79;98856.66;4971551;28;20031;-74
2021/08/28 11:38:46;;;;;;;1.15;0.98;;;;;;;19.20;61.65;98854.28;4973290;28;20031;-74
2021/08/28 11:41:16;;;;;;;3.33;1.25;;;;;;;18.63;63.62;98848.41;4973101;28;20030;-71
2021/08/28 11:43:43;;;;;;;1.48;1.00;;;;;;;18.05;66.38;98864.31;4973160;28;20027;-69
2021/08/28 11:46:12;;;;;;;1.38;0.88;;;;;;;18.33;67.36;98858.63;4973099;28;20043;-70
2021/08/28 11:48:40;;;;;;;5.25;0.98;;;;;;;18.20;65.84;98860.13;4973404;28;20023;-72
2021/08/28 11:51:07;;;;;;;2.75;0.85;;;;;;;18.18;64.56;98857.59;4960467;28;20038;-76
2021/08/28 11:53:34;;;;;;;0.95;0.82;;;;;;;18.41;62.95;98858.22;4953776;28;20377;-76
2021/08/28 11:56:13;;;;;;;2.45;0.80;;;;;;;18.49;64.28;98851.69;4953757;28;20044;-76
2021/08/28 11:58:58;;;;;;;1.00;0.80;;;;;;;18.86;62.72;98856.94;4953788;28;20102;-76
2021/08/28 12:01:35;;;;;;;1.05;0.95;;;;;;;19.10;60.82;98858.31;4953703;28;20071;-76
2021/08/28 12:04:02;;;;;;;3.17;1.00;;;;;;;19.01;61.53;98858.78;4963987;28;20039;-76
2021/08/28 12:06:28;;;;;;;1.08;0.82;;;;;;;18.52;65.60;98844.59;4973149;28;20054;-76
2021/08/28 12:08:54;;;;;;;0.95;0.80;;;;;;;18.97;64.59;98849.34;4972937;28;20553;-76
2021/08/28 12:11:21;;;;;;;1.38;0.90;;;;;;;19.42;61.10;98858.41;4972934;28;20069;-75
2021/08/28 12:13:47;;;;;;;0.70;0.70;;;;;;;19.79;57.79;98846.81;4972661;28;20030;-76
2021/08/28 12:16:19;;;;;;;2.60;0.60;;;;;;;19.87;56.88;98838.47;4973027;28;20031;-76
2021/08/28 12:18:44;;;;;;;1.38;1.00;;;;;;;21.05;53.54;98843.13;4972981;28;20491;-74
2021/08/28 12:21:11;;;;;;;0.80;0.77;;;;;;;20.72;53.88;98844.19;4959468;28;20024;-73
2021/08/28 12:23:36;;;;;;;1.77;0.95;;;;;;;20.27;55.68;98845.88;4953614;28;20094;-73
2021/08/28 12:26:16;;;;;;;1.67;0.85;;;;;;;20.26;54.58;98846.81;4955448;28;20114;-73
2021/08/28 12:28:42;;;;;;;4.85;0.80;;;;;;;20.00;56.73;98847.41;4957422;28;20027;-73
2021/08/28 12:31:08;;;;;;;1.27;1.17;;;;;;;19.72;55.92;98848.91;4957058;28;20506;-73
2021/08/28 12:33:33;;;;;;;1.10;1.00;;;;;;;19.58;57.11;98848.78;4963076;28;20143;-76
2021/08/28 12:35:58;;;;;;;0.93;0.70;;;;;;;19.54;58.75;98852.50;4975374;28;20109;-76
2021/08/28 12:38:32;;;;;;;0.90;0.90;;;;;;;19.41;60.40;98841.78;4976268;28;20041;-76
2021/08/28 12:41:01;;;;;;;2.90;2.40;;;;;;;19.45;59.03;98842.47;4976290;28;20023;-73
2021/08/28 12:43:26;;;;;;;1.20;1.10;;;;;;;19.66;57.45;98830.84;4976139;28;20027;-73
2021/08/28 12:45:55;;;;;;;1.13;0.60;;;;;;;19.85;54.78;98835.09;4976362;28;20476;-73
2021/08/28 12:48:20;;;;;;;0.63;0.63;;;;;;;18.92;57.45;98838.25;4976194;28;20037;-76
2021/08/28 12:50:46;;;;;;;1.02;0.88;;;;;;;19.40;57.53;98844.50;4965923;28;20023;-75
2021/08/28 12:53:11;;;;;;;1.50;0.65;;;;;;;19.46;55.48;98833.66;4956503;28;20031;-76
2021/08/28 12:55:37;;;;;;;2.08;0.60;;;;;;;19.66;52.60;98833.47;4956808;28;20504;-76
2021/08/28 12:58:04;;;;;;;5.13;0.73;;;;;;;19.68;53.58;98836.88;4957589;28;20027;-76
2021/08/28 13:00:47;;;;;;;1.70;0.93;;;;;;;20.56;53.38;98830.22;4957158;28;20039;-76
2021/08/28 13:03:28;;;;;;;0.60;0.60;;;;;;;20.48;53.53;98824.53;4962869;28;20078;-76
2021/08/28 13:05:55;;;;;;;1.17;0.80;;;;;;;20.71;54.15;98831.97;4974304;28;20026;-76
2021/08/28 13:08:30;;;;;;;0.80;0.63;;;;;;;20.83;51.23;98819.84;4975962;28;20081;-76
2021/08/28 13:10:56;;;;;;;3.92;1.13;;;;;;;20.31;53.09;98832.50;4975932;28;20030;-76
2021/08/28 13:13:21;;;;;;;1.08;0.70;;;;;;;20.38;50.91;98820.72;4975489;28;20027;-76
2021/08/28 13:15:46;;;;;;;1.65;0.68;;;;;;;20.27;52.34;98816.06;5029373;23;20051;-73
2021/08/28 13:18:17;;;;;;;0.60;0.60;;;;;;;20.38;51.42;98823.34;4994463;28;20065;-73
2021/08/28 13:20:44;;;;;;;1.30;0.70;;;;;;;19.68;53.13;98823.72;4994673;28;20050;-73
2021/08/28 13:23:11;;;;;;;0.50;0.50;;;;;;;19.57;50.79;98833.91;4994942;28;20053;-73
2021/08/28 13:25:42;;;;;;;0.50;0.50;;;;;;;19.07;51.62;98826.94;4978883;28;20035;-73
2021/08/28 13:28:18;;;;;;;1.95;0.60;;;;;;;18.84;53.49;98830.75;4975591;28;20801;-73
2021/08/28 13:30:46;;;;;;;0.40;0.40;;;;;;;18.34;54.38;98825.38;4975647;28;20439;-73
2021/08/28 13:33:24;;;;;;;0.60;0.60;;;;;;;18.19;56.43;98827.81;4965517;28;20055;-73
2021/08/28 13:35:49;;;;;;;0.80;0.50;;;;;;;18.40;55.78;98819.81;4958056;28;20058;-73
2021/08/28 13:38:15;;;;;;;0.60;0.55;;;;;;;19.15;54.88;98822.16;4956022;28;20050;-73
2021/08/28 13:40:40;;;;;;;0.60;0.60;;;;;;;19.69;53.71;98822.78;4956018;28;20144;-73
2021/08/28 13:43:06;;;;;;;0.80;0.80;;;;;;;19.04;54.72;98816.59;4955824;28;20070;-73
2021/08/28 13:45:32;;;;;;;3.53;2.60;;;;;;;19.02;56.48;98817.59;4955812;28;20023;-73
2021/08/28 13:47:58;;;;;;;1.88;1.25;;;;;;;18.65;56.62;98815.03;4955877;28;20030;-72
2021/08/28 13:50:24;;;;;;;0.50;0.50;;;;;;;18.76;53.04;98811.91;4955889;28;20038;-73
2021/08/28 13:52:51;;;;;;;0.50;0.50;;;;;;;18.55;53.77;98813.78;4955446;28;20023;-73
2021/08/28 13:55:17;;;;;;;0.40;0.40;;;;;;;18.62;54.10;98815.22;4955743;28;20031;-73
2021/08/28 13:57:44;;;;;;;0.60;0.60;;;;;;;18.18;54.50;98812.13;4955677;28;20023;-73
2021/08/28 14:00:11;;;;;;;0.60;0.60;;;;;;;18.21;55.77;98810.22;4955747;28;20031;-73
2021/08/28 14:02:36;;;;;;;0.50;0.50;;;;;;;18.31;56.30;98805.38;4959951;28;20384;-73
2021/08/28 14:05:05;;;;;;;1.00;0.50;;;;;;;18.74;54.67;98806.72;4955425;28;20031;-73
2021/08/28 14:07:31;;;;;;;0.40;0.40;;;;;;;19.03;51.40;98801.75;4955432;28;20358;-73
2021/08/28 14:09:58;;;;;;;1.02;0.50;;;;;;;19.36;52.46;98801.75;4955456;28;20031;-73
2021/08/28 14:12:24;;;;;;;0.70;0.60;;;;;;;19.09;54.11;98798.81;4955192;28;20031;-73
2021/08/28 14:14:50;;;;;;;1.15;0.50;;;;;;;18.87;54.20;98798.25;4955220;28;20035;-73
2021/08/28 14:17:15;;;;;;;0.50;0.50;;;;;;;18.87;54.50;98801.72;4955476;28;20033;-74
2021/08/28 14:19:40;;;;;;;0.68;0.68;;;;;;;18.73;55.21;98801.56;4956642;28;20477;-73
2021/08/28 14:22:07;;;;;;;0.63;0.63;;;;;;;18.65;55.10;98799.28;4974391;28;20072;-73
2021/08/28 14:24:33;;;;;;;2.92;0.40;;;;;;;18.97;53.90;98804.72;4974398;28;20037;-73
2021/08/28 14:26:58;;;;;;;0.88;0.57;;;;;;;19.08;53.56;98802.38;4974497;28;20023;-72
2021/08/28 14:29:23;;;;;;;0.60;0.60;;;;;;;18.71;54.78;98804.28;4974405;28;20093;-74
2021/08/28 14:31:49;;;;;;;0.70;0.57;;;;;;;18.73;54.35;98807.66;4971365;28;20070;-73
2021/08/28 14:34:17;;;;;;;0.95;0.85;;;;;;;18.83;54.77;98807.19;4962768;28;20033;-74
2021/08/28 14:36:42;;;;;;;0.68;0.50;;;;;;;19.30;52.94;98801.25;4954846;28;20404;-73
2021/08/28 14:39:08;;;;;;;2.78;0.68;;;;;;;19.29;52.74;98802.16;4954919;28;20044;-74
2021/08/28 14:41:33;;;;;;;2.05;0.50;;;;;;;19.82;51.47;98793.19;4954840;28;20046;-75
2021/08/28 14:43:59;;;;;;;0.98;0.60;;;;;;;20.02;50.03;98801.69;4954662;28;20058;-69
2021/08/28 14:46:24;;;;;;;0.65;0.50;;;;;;;19.36;52.65;98801.75;4954811;28;20033;-74
2021/08/28 14:48:50;;;;;;;0.50;0.50;;;;;;;19.27;51.97;98805.72;4953984;28;20031;-74
2021/08/28 14:51:15;;;;;;;0.80;0.47;;;;;;;18.85;53.80;98810.59;4954379;28;20092;-74
2021/08/28 14:53:40;;;;;;;1.42;0.60;;;;;;;18.96;53.24;98808.28;4954432;28;20031;-74
2021/08/28 14:56:06;;;;;;;0.47;0.47;;;;;;;18.88;54.10;98810.44;4954572;28;20031;-73
2021/08/28 14:58:31;;;;;;;0.40;0.40;;;;;;;18.64;54.92;98813.34;4954663;28;20023;-73
2021/08/28 15:00:56;;;;;;;1.02;0.55;;;;;;;18.41;54.67;98806.59;4954502;28;20109;-73
2021/08/28 15:03:22;;;;;;;0.90;0.80;;;;;;;18.42;55.54;98812.69;4961340;28;20113;-74
2021/08/28 15:05:47;;;;;;;1.25;1.15;;;;;;;18.17;57.10;98808.66;4956691;28;20467;-73
2021/08/28 15:08:13;;;;;;;0.43;0.43;;;;;;;18.16;57.79;98817.44;4953322;29;20036;-73
2021/08/28 15:10:38;;;;;;;0.47;0.47;;;;;;;18.29;56.99;98822.13;4953200;29;20373;-73
2021/08/28 15:13:03;;;;;;;0.80;0.60;;;;;;;18.00;57.68;98824.38;4954177;28;20035;-73
2021/08/28 15:15:29;;;;;;;0.52;0.52;;;;;;;18.06;57.69;98825.84;4954181;28;20031;-74
2021/08/28 15:17:54;;;;;;;0.68;0.50;;;;;;;18.11;57.32;98827.31;4953092;28;20027;-73
2021/08/28 15:20:20;;;;;;;0.60;0.50;;;;;;;18.14;57.31;98824.56;4952963;28;20027;-74
2021/08/28 15:22:45;;;;;;;1.00;0.95;;;;;;;18.29;57.48;98822.13;4952850;29;20036;-73
2021/08/28 15:25:10;;;;;;;0.70;0.52;;;;;;;18.03;58.03;98826.81;4954185;28;20023;-74
2021/08/28 15:27:36;;;;;;;0.77;0.77;;;;;;;18.07;58.61;98827.53;4931785;28;20514;-73
2021/08/28 15:30:03;;;;;;;2.65;0.50;;;;;;;18.17;57.92;98829.63;4954518;28;20655;-74
2021/08/28 15:32:28;;;;;;;0.93;0.50;;;;;;;18.08;58.50;98830.06;4957081;28;20027;-73
2021/08/28 15:34:53;;;;;;;1.17;0.70;;;;;;;17.97;58.06;98827.97;4953899;28;20023;-73
2021/08/28 15:37:19;;;;;;;0.60;0.60;;;;;;;18.21;57.00;98833.81;4952719;29;20110;-74
2021/08/28 15:39:48;;;;;;;9.07;0.60;;;;;;;18.22;57.56;98826.78;4954095;28;20078;-74
2021/08/28 15:42:13;;;;;;;0.77;0.47;;;;;;;18.02;57.43;98835.63;4953842;28;20114;-73
2021/08/28 15:44:40;;;;;;;8.60;1.00;;;;;;;17.98;58.74;98832.28;4952712;29;20114;-74
2021/08/28 15:47:05;;;;;;;0.45;0.45;;;;;;;17.89;57.96;98834.47;4952690;29;20447;-74
2021/08/28 15:49:31;;;;;;;1.95;0.60;;;;;;;18.11;58.43;98839.59;4953979;28;20062;-73
2021/08/28 15:51:56;;;;;;;0.50;0.50;;;;;;;18.21;58.34;98836.44;4972912;28;20539;-74
2021/08/28 15:54:21;;;;;;;1.48;0.47;;;;;;;18.52;56.42;98834.97;4973116;28;20396;-74
2021/08/28 15:56:48;;;;;;;0.98;0.70;;;;;;;18.90;58.08;98832.19;4971878;28;20050;-73
2021/08/28 15:59:13;;;;;;;1.65;1.10;;;;;;;18.73;59.31;98828.66;4973690;28;20428;-74
2021/08/28 16:01:39;;;;;;;2.42;1.50;;;;;;;19.00;59.24;98828.16;4975718;28;20023;-73
2021/08/28 16:04:05;;;;;;;3.25;1.67;;;;;;;18.94;60.21;98828.50;4965419;28;20026;-73
2021/08/28 16:06:30;;;;;;;1.00;1.00;;;;;;;18.68;59.92;98825.41;4956516;29;20039;-73
2021/08/28 16:08:56;;;;;;;4.75;4.10;;;;;;;18.52;61.05;98824.47;4957633;28;20023;-74
2021/08/28 16:11:24;;;;;;;3.83;1.30;;;;;;;18.70;59.80;98828.81;4957468;28;20106;-73
2021/08/28 16:13:49;;;;;;;3.17;1.20;;;;;;;18.73;60.53;98828.66;4957303;28;20574;-74
2021/08/28 16:16:15;;;;;;;3.60;1.40;;;;;;;18.54;59.55;98822.59;4965409;28;20027;-74
2021/08/28 16:18:42;;;;;;;1.85;1.50;;;;;;;18.36;61.89;98831.38;4964889;28;20031;-74
2021/08/28 16:21:07;;;;;;;1.90;1.23;;;;;;;18.47;60.92;98831.72;4961281;28;20078;-74
2021/08/28 16:23:33;;;;;;;1.35;1.20;;;;;;;18.61;60.79;98833.63;4955206;28;20066;-73
2021/08/28 16:25:58;;;;;;;2.17;1.30;;;;;;;18.65;61.25;98838.66;4956821;28;20019;-74
2021/08/28 16:28:23;;;;;;;1.35;1.25;;;;;;;18.94;61.21;98834.59;4956865;28;20058;-73
2021/08/28 16:30:49;;;;;;;1.52;1.42;;;;;;;18.95;60.81;98835.44;4956799;28;20411;-74
2021/08/28 16:33:15;;;;;;;1.60;1.30;;;;;;;18.59;60.87;98836.34;4963233;28;20115;-73
2021/08/28 16:35:41;;;;;;;1.33;1.10;;;;;;;18.15;60.46;98835.91;4972273;28;20041;-73
2021/08/28 16:38:06;;;;;;;9.40;6.65;;;;;;;18.10;61.15;98836.13;4976428;28;20034;-75
2021/08/28 16:40:35;;;;;;;5.28;1.45;;;;;;;17.98;60.62;98840.16;4975181;28;20037;-71
2021/08/28 16:43:02;;;;;;;2.63;1.40;;;;;;;18.11;61.87;98835.19;4974986;28;20023;-74
2021/08/28 16:45:27;;;;;;;1.40;1.30;;;;;;;17.81;63.64;98841.88;4976208;28;20035;-75
2021/08/28 16:47:53;;;;;;;2.50;1.60;;;;;;;17.49;65.12;98846.78;4976327;28;20457;-74
2021/08/28 16:50:18;;;;;;;4.78;2.45;;;;;;;17.30;66.72;98840.66;4969696;28;20488;-74
2021/08/28 16:52:43;;;;;;;4.32;1.85;;;;;;;17.04;66.97;98845.28;4956782;28;20031;-75
2021/08/28 16:55:09;;;;;;;2.05;1.75;;;;;;;16.93;67.07;98839.66;4955430;29;20093;-75
2021/08/28 16:57:34;;;;;;;3.20;2.20;;;;;;;16.75;67.61;98836.03;4956852;28;20023;-75
2021/08/28 17:00:00;;;;;;;2.85;2.25;;;;;;;16.54;68.47;98837.75;4956799;28;20058;-75
2021/08/28 17:02:25;;;;;;;2.33;2.13;;;;;;;16.48;69.43;98840.59;4961645;28;20023;-75
2021/08/28 17:04:51;;;;;;;2.50;2.30;;;;;;;16.27;70.60;98846.72;4967633;28;20044;-75
2021/08/28 17:07:17;;;;;;;3.30;2.45;;;;;;;16.32;70.79;98844.78;4967570;28;20559;-74
2021/08/28 17:09:42;;;;;;;2.90;2.17;;;;;;;16.50;70.55;98838.78;4955583;28;20031;-73
2021/08/28 17:12:08;;;;;;;3.92;2.20;;;;;;;16.47;70.55;98838.06;4953861;28;20039;-73
2021/08/28 17:14:34;;;;;;;3.67;1.83;;;;;;;16.48;70.60;98845.00;4954459;28;20023;-73
2021/08/28 17:17:00;;;;;;;2.38;2.10;;;;;;;16.56;70.48;98845.53;4955078;28;20118;-73
2021/08/28 17:19:25;;;;;;;13.95;10.80;;;;;;;16.56;70.15;98849.00;4960431;28;20038;-73
2021/08/28 17:21:51;;;;;;;2.60;2.40;;;;;;;16.56;70.40;98849.00;4954103;28;20035;-73
2021/08/28 17:24:16;;;;;;;4.82;2.38;;;;;;;16.52;71.26;98854.41;4955264;28;20121;-73
2021/08/28 17:26:41;;;;;;;3.17;2.75;;;;;;;16.46;70.55;98850.28;4955253;28;20031;-74
2021/08/28 17:29:07;;;;;;;4.13;2.85;;;;;;;16.30;71.53;98867.53;4954064;28;20049;-73
2021/08/28 17:31:32;;;;;;;2.90;2.70;;;;;;;16.22;71.88;98859.13;4954986;28;20042;-74
2021/08/28 17:33:59;;;;;;;4.63;2.80;;;;;;;16.04;72.80;98860.69;4954811;28;20034;-74
2021/08/28 17:36:24;;;;;;;4.85;3.08;;;;;;;16.04;72.50;98861.53;4954951;28;20086;-74
2021/08/28 17:38:50;;;;;;;3.78;2.10;;;;;;;15.97;73.75;98865.31;4954932;28;20027;-73
2021/08/28 17:41:15;;;;;;;2.20;1.95;;;;;;;16.00;73.82;98865.19;4955162;28;20034;-73
2021/08/28 17:43:40;;;;;;;2.35;2.03;;;;;;;16.07;73.41;98866.66;4947887;28;20114;-73
2021/08/28 17:46:06;;;;;;;2.50;2.30;;;;;;;15.63;75.49;98871.81;4945783;28;20034;-73
2021/08/28 17:48:31;;;;;;;2.17;1.92;;;;;;;15.62;76.31;98864.84;4945323;28;20377;-73
2021/08/28 17:50:57;;;;;;;2.67;2.47;;;;;;;15.50;77.17;98864.44;4944688;28;20118;-73
2021/08/28 17:53:22;;;;;;;4.20;2.78;;;;;;;15.38;77.10;98865.75;4951811;28;20023;-73
2021/08/28 17:55:48;;;;;;;3.33;2.60;;;;;;;15.42;76.95;98864.72;4935648;28;20170;-73
2021/08/28 17:58:13;;;;;;;4.22;3.08;;;;;;;15.07;77.72;98874.66;4931619;28;20118;-73
2021/08/28 18:00:40;;;;;;;5.63;3.00;;;;;;;15.14;77.61;98873.53;4926197;28;20051;-73
2021/08/28 18:03:05;;;;;;;4.72;2.65;;;;;;;14.94;77.93;98882.94;4924149;28;20029;-73
2021/08/28 18:05:31;;;;;;;3.22;2.83;;;;;;;14.80;77.89;98884.28;4928236;28;20066;-73
2021/08/28 18:07:56;;;;;;;5.20;3.53;;;;;;;14.60;79.31;98884.94;4925296;28;20086;-72
2021/08/28 18:10:22;;;;;;;4.63;2.70;;;;;;;14.47;79.88;98885.34;4927825;28;20111;-72
2021/08/28 18:12:47;;;;;;;5.90;3.75;;;;;;;14.53;80.14;98893.00;4930539;28;20444;-71
2021/08/28 18:15:12;;;;;;;4.93;2.47;;;;;;;14.43;80.51;98900.22;4941145;28;20125;-72
2021/08/28 18:17:38;;;;;;;5.00;3.97;;;;;;;14.27;81.46;98899.00;4939041;28;20130;-71
2021/08/28 18:20:04;;;;;;;3.92;2.83;;;;;;;14.27;81.16;98899.00;4939652;28;20440;-72
2021/08/28 18:22:30;;;;;;;3.20;2.45;;;;;;;14.30;80.72;98901.50;4943478;28;20041;-71
2021/08/28 18:24:55;;;;;;;4.07;3.78;;;;;;;14.18;81.67;98909.72;4947116;28;20401;-71
2021/08/28 18:27:22;;;;;;;4.70;3.45;;;;;;;14.27;81.29;98904.22;4948838;28;20063;-71
2021/08/28 18:29:48;;;;;;;4.90;4.32;;;;;;;14.22;82.13;98908.72;4953543;28;20034;-71
2021/08/28 18:32:14;;;;;;;4.45;3.78;;;;;;;13.95;84.08;98913.84;4952860;28;20042;-71
2021/08/28 18:34:39;;;;;;;3.88;3.25;;;;;;;13.76;85.26;98912.69;4953235;28;20727;-71
2021/08/28 18:37:05;;;;;;;4.03;3.13;;;;;;;13.66;86.10;98916.44;4952870;28;20035;-72